Terminal Aerodrome Forecast
Issued by NWS

Home | Current Version | Previous Version | Text Only | Print | Product List | Glossary On
Versions: 1 2 3 4 5 6 7 8 9 10 11 12 13 14 15 16 17 18 19 20 21 22 23 24 25 26 27 28 29 30 31 32 33 34 35 36 37 38 39 40 41 42 43 44 45 46 47 48 49 50
000
FTUS41 KBOX 260542 AAA
TAFACK
TAF AMD
KACK 260542Z 2606/2706 26010KT P6SM FEW250
     FM261000 30010KT P6SM FEW250
     FM261300 34007KT P6SM FEW250
     FM261600 04005KT P6SM FEW250
     FM261700 11005KT P6SM FEW250
     FM270200 17007KT P6SM SCT140=

USA.gov is the U.S. government's official web portal to all federal, state and local government web resources and services.